This is the latest recevied weather packets stored in our database for station/object OM3WYM-13. If no packets are shown the sender has not sent any weather packets the latest 10 day(s).
| Time | Temp. | Humidity | Pressure | Rain* | Wind** | Luminosity | Snow |
|---|---|---|---|---|---|---|---|
| 1777791009 | 11.67° C | 50% | 1023.2 hPa | - | - | - | - |
| 1777790408 | 11.11° C | 53% | 1023.4 hPa | - | - | - | - |
| 1777789808 | 10.56° C | 55% | 1023.4 hPa | - | - | - | - |
| 1777789209 | 9.44° C | 58% | 1023.5 hPa | - | - | - | - |
| 1777788608 | 8.89° C | 60% | 1023.5 hPa | - | - | - | - |
| 1777788009 | 7.78° C | 65% | 1023.8 hPa | - | - | - | - |
| 1777787408 | 7.22° C | 69% | 1023.9 hPa | - | - | - | - |
| 1777786808 | 6.11° C | 73% | 1024 hPa | - | - | - | - |
| 1777786208 | 5.56° C | 76% | 1024 hPa | - | - | - | - |
| 1777785608 | 5° C | 80% | 1024.1 hPa | - | - | - | - |
| 1777785008 | 4.44° C | 81% | 1024.2 hPa | - | - | - | - |
| 1777784409 | 3.89° C | 83% | 1024.4 hPa | - | - | - | - |
| 1777783809 | 3.33° C | 85% | 1024.4 hPa | - | - | - | - |
| 1777783208 | 2.78° C | 87% | 1024.5 hPa | - | - | - | - |
| 1777782608 | 2.22° C | 88% | 1024.6 hPa | - | - | - | - |
| 1777782008 | 2.22° C | 90% | 1024.5 hPa | - | - | - | - |
| 1777781409 | 1.67° C | 91% | 1024.5 hPa | - | - | - | - |
| 1777780809 | 1.67° C | 92% | 1024.3 hPa | - | - | - | - |
| 1777780209 | 1.11° C | 92% | 1024.2 hPa | - | - | - | - |
| 1777779608 | 1.11° C | 93% | 1024.3 hPa | - | - | - | - |
| 1777779009 | 1.11° C | 94% | 1024.3 hPa | - | - | - | - |
| 1777778409 | 1.11° C | 94% | 1024.2 hPa | - | - | - | - |
| 1777777808 | 1.11° C | 91% | 1024.3 hPa | - | - | - | - |
| 1777777208 | 1.11° C | 89% | 1024.2 hPa | - | - | - | - |
| 1777776608 | 1.11° C | 88% | 1024 hPa | - | - | - | - |
* Rain since midnight (hover to see other rain measurements)
** Current wind speed in m/s (hover to see current wind gust speed)